sensor_id;sensor_type;location;lat;lon;timestamp;P1;durP1;ratioP1;P2;durP2;ratioP2
36551;SDS011;22559;54.176;12.102;2023-09-12T00:00:49;17.52;;;12.68;;
36551;SDS011;22559;54.176;12.102;2023-09-12T00:03:19;22.25;;;12.93;;
36551;SDS011;22559;54.176;12.102;2023-09-12T00:08:18;19.60;;;11.77;;
36551;SDS011;22559;54.176;12.102;2023-09-12T00:10:44;24.35;;;11.40;;
36551;SDS011;22559;54.176;12.102;2023-09-12T00:13:09;19.98;;;11.35;;
36551;SDS011;22559;54.176;12.102;2023-09-12T00:15:35;19.00;;;11.27;;
36551;SDS011;22559;54.176;12.102;2023-09-12T00:18:01;22.95;;;11.20;;
36551;SDS011;22559;54.176;12.102;2023-09-12T00:20:26;17.25;;;11.10;;
36551;SDS011;22559;54.176;12.102;2023-09-12T00:22:52;25.20;;;11.02;;
36551;SDS011;22559;54.176;12.102;2023-09-12T00:25:19;28.52;;;11.38;;
36551;SDS011;22559;54.176;12.102;2023-09-12T00:27:45;19.85;;;10.88;;
36551;SDS011;22559;54.176;12.102;2023-09-12T00:30:11;22.90;;;12.32;;
36551;SDS011;22559;54.176;12.102;2023-09-12T00:32:38;18.98;;;11.55;;
36551;SDS011;22559;54.176;12.102;2023-09-12T00:35:04;21.38;;;11.32;;
36551;SDS011;22559;54.176;12.102;2023-09-12T00:37:30;18.92;;;10.95;;
36551;SDS011;22559;54.176;12.102;2023-09-12T00:39:56;22.70;;;11.75;;
36551;SDS011;22559;54.176;12.102;2023-09-12T00:42:24;17.30;;;10.90;;
36551;SDS011;22559;54.176;12.102;2023-09-12T00:44:50;24.58;;;11.57;;
36551;SDS011;22559;54.176;12.102;2023-09-12T00:47:16;18.73;;;11.73;;
36551;SDS011;22559;54.176;12.102;2023-09-12T00:49:42;21.55;;;11.13;;
36551;SDS011;22559;54.176;12.102;2023-09-12T00:52:10;22.02;;;12.02;;
36551;SDS011;22559;54.176;12.102;2023-09-12T00:54:38;24.67;;;11.38;;
36551;SDS011;22559;54.176;12.102;2023-09-12T00:57:05;18.90;;;10.65;;
36551;SDS011;22559;54.176;12.102;2023-09-12T00:59:31;15.85;;;10.30;;
36551;SDS011;22559;54.176;12.102;2023-09-12T01:01:57;23.40;;;10.70;;
36551;SDS011;22559;54.176;12.102;2023-09-12T01:04:24;17.40;;;10.52;;
36551;SDS011;22559;54.176;12.102;2023-09-12T01:06:51;24.30;;;11.10;;
36551;SDS011;22559;54.176;12.102;2023-09-12T01:09:17;19.35;;;11.30;;
36551;SDS011;22559;54.176;12.102;2023-09-12T01:11:43;21.92;;;11.23;;
36551;SDS011;22559;54.176;12.102;2023-09-12T01:14:09;17.30;;;10.52;;
36551;SDS011;22559;54.176;12.102;2023-09-12T01:16:35;20.75;;;11.93;;
36551;SDS011;22559;54.176;12.102;2023-09-12T01:19:01;19.83;;;10.70;;
36551;SDS011;22559;54.176;12.102;2023-09-12T01:24:45;19.75;;;10.80;;
36551;SDS011;22559;54.176;12.102;2023-09-12T01:27:41;16.58;;;10.77;;
36551;SDS011;22559;54.176;12.102;2023-09-12T01:30:10;19.42;;;11.52;;
36551;SDS011;22559;54.176;12.102;2023-09-12T01:32:37;16.35;;;10.57;;
36551;SDS011;22559;54.176;12.102;2023-09-12T01:35:04;19.08;;;11.48;;
36551;SDS011;22559;54.176;12.102;2023-09-12T01:37:30;20.08;;;10.68;;
36551;SDS011;22559;54.176;12.102;2023-09-12T01:39:56;21.83;;;11.48;;
36551;SDS011;22559;54.176;12.102;2023-09-12T01:42:22;18.05;;;10.43;;
36551;SDS011;22559;54.176;12.102;2023-09-12T01:44:50;17.67;;;11.40;;
36551;SDS011;22559;54.176;12.102;2023-09-12T01:47:19;23.92;;;11.25;;
36551;SDS011;22559;54.176;12.102;2023-09-12T01:49:50;21.83;;;12.05;;
36551;SDS011;22559;54.176;12.102;2023-09-12T01:52:18;16.13;;;11.13;;
36551;SDS011;22559;54.176;12.102;2023-09-12T01:54:44;19.38;;;11.20;;
36551;SDS011;22559;54.176;12.102;2023-09-12T01:57:11;20.75;;;12.02;;
36551;SDS011;22559;54.176;12.102;2023-09-12T01:59:38;20.63;;;11.63;;
36551;SDS011;22559;54.176;12.102;2023-09-12T02:02:04;19.75;;;10.85;;
36551;SDS011;22559;54.176;12.102;2023-09-12T02:04:30;19.52;;;11.52;;
36551;SDS011;22559;54.176;12.102;2023-09-12T02:06:55;20.42;;;10.88;;
36551;SDS011;22559;54.176;12.102;2023-09-12T02:09:23;17.33;;;10.85;;
36551;SDS011;22559;54.176;12.102;2023-09-12T02:11:49;15.95;;;11.00;;
36551;SDS011;22559;54.176;12.102;2023-09-12T02:14:16;19.05;;;10.80;;
36551;SDS011;22559;54.176;12.102;2023-09-12T02:16:43;22.90;;;11.68;;
36551;SDS011;22559;54.176;12.102;2023-09-12T02:19:08;18.42;;;11.65;;
36551;SDS011;22559;54.176;12.102;2023-09-12T02:21:34;18.27;;;11.20;;
36551;SDS011;22559;54.176;12.102;2023-09-12T02:23:59;19.27;;;13.02;;
36551;SDS011;22559;54.176;12.102;2023-09-12T02:26:25;27.15;;;14.57;;
36551;SDS011;22559;54.176;12.102;2023-09-12T02:28:51;23.75;;;16.85;;
36551;SDS011;22559;54.176;12.102;2023-09-12T02:31:17;22.67;;;16.55;;
36551;SDS011;22559;54.176;12.102;2023-09-12T02:33:42;24.00;;;17.45;;
36551;SDS011;22559;54.176;12.102;2023-09-12T02:36:09;30.90;;;20.60;;
36551;SDS011;22559;54.176;12.102;2023-09-12T02:38:35;33.28;;;22.95;;
36551;SDS011;22559;54.176;12.102;2023-09-12T02:41:00;35.45;;;22.52;;
36551;SDS011;22559;54.176;12.102;2023-09-12T02:43:27;32.92;;;23.95;;
36551;SDS011;22559;54.176;12.102;2023-09-12T02:45:53;36.78;;;24.17;;
36551;SDS011;22559;54.176;12.102;2023-09-12T02:48:19;37.65;;;25.42;;
36551;SDS011;22559;54.176;12.102;2023-09-12T02:50:45;35.28;;;25.48;;
36551;SDS011;22559;54.176;12.102;2023-09-12T02:53:10;38.03;;;27.75;;
36551;SDS011;22559;54.176;12.102;2023-09-12T02:55:39;41.90;;;27.33;;
36551;SDS011;22559;54.176;12.102;2023-09-12T02:58:06;44.03;;;28.08;;
36551;SDS011;22559;54.176;12.102;2023-09-12T03:00:31;42.45;;;27.55;;
36551;SDS011;22559;54.176;12.102;2023-09-12T03:02:57;39.50;;;27.75;;
36551;SDS011;22559;54.176;12.102;2023-09-12T03:05:22;43.30;;;30.25;;
36551;SDS011;22559;54.176;12.102;2023-09-12T03:07:48;43.88;;;30.40;;
36551;SDS011;22559;54.176;12.102;2023-09-12T03:10:14;45.00;;;31.20;;
36551;SDS011;22559;54.176;12.102;2023-09-12T03:12:40;48.70;;;32.15;;
36551;SDS011;22559;54.176;12.102;2023-09-12T03:15:06;41.55;;;30.20;;
36551;SDS011;22559;54.176;12.102;2023-09-12T03:17:32;43.55;;;29.83;;
36551;SDS011;22559;54.176;12.102;2023-09-12T03:19:57;45.40;;;29.83;;
36551;SDS011;22559;54.176;12.102;2023-09-12T03:22:23;43.45;;;30.45;;
36551;SDS011;22559;54.176;12.102;2023-09-12T03:24:49;47.50;;;31.67;;
36551;SDS011;22559;54.176;12.102;2023-09-12T03:27:15;47.17;;;31.73;;
36551;SDS011;22559;54.176;12.102;2023-09-12T03:29:40;46.40;;;32.25;;
36551;SDS011;22559;54.176;12.102;2023-09-12T03:32:06;51.50;;;35.80;;
36551;SDS011;22559;54.176;12.102;2023-09-12T03:34:31;49.55;;;33.28;;
36551;SDS011;22559;54.176;12.102;2023-09-12T03:36:57;52.03;;;33.00;;
36551;SDS011;22559;54.176;12.102;2023-09-12T03:39:23;52.90;;;34.72;;
36551;SDS011;22559;54.176;12.102;2023-09-12T03:41:48;55.10;;;37.78;;
36551;SDS011;22559;54.176;12.102;2023-09-12T03:44:14;60.15;;;37.55;;
36551;SDS011;22559;54.176;12.102;2023-09-12T03:46:40;49.00;;;35.38;;
36551;SDS011;22559;54.176;12.102;2023-09-12T03:49:05;52.05;;;34.53;;
36551;SDS011;22559;54.176;12.102;2023-09-12T03:51:31;56.60;;;35.22;;
36551;SDS011;22559;54.176;12.102;2023-09-12T03:53:59;53.95;;;34.70;;
36551;SDS011;22559;54.176;12.102;2023-09-12T03:56:25;60.83;;;39.42;;
36551;SDS011;22559;54.176;12.102;2023-09-12T03:58:51;54.45;;;36.88;;
36551;SDS011;22559;54.176;12.102;2023-09-12T04:01:16;58.47;;;38.17;;
36551;SDS011;22559;54.176;12.102;2023-09-12T04:03:42;61.95;;;39.83;;
36551;SDS011;22559;54.176;12.102;2023-09-12T04:06:09;56.50;;;39.08;;
36551;SDS011;22559;54.176;12.102;2023-09-12T04:08:35;66.03;;;41.88;;
36551;SDS011;22559;54.176;12.102;2023-09-12T04:11:00;71.65;;;47.80;;
36551;SDS011;22559;54.176;12.102;2023-09-12T04:13:26;58.50;;;39.92;;
36551;SDS011;22559;54.176;12.102;2023-09-12T04:15:51;63.63;;;39.90;;
36551;SDS011;22559;54.176;12.102;2023-09-12T04:18:17;66.07;;;41.20;;
36551;SDS011;22559;54.176;12.102;2023-09-12T04:20:43;63.45;;;39.17;;
36551;SDS011;22559;54.176;12.102;2023-09-12T04:23:08;65.13;;;40.60;;
36551;SDS011;22559;54.176;12.102;2023-09-12T04:25:34;66.60;;;41.42;;
36551;SDS011;22559;54.176;12.102;2023-09-12T04:27:59;69.75;;;43.58;;
36551;SDS011;22559;54.176;12.102;2023-09-12T04:30:25;71.22;;;43.20;;
36551;SDS011;22559;54.176;12.102;2023-09-12T04:32:51;72.40;;;44.35;;
36551;SDS011;22559;54.176;12.102;2023-09-12T04:35:16;72.18;;;45.15;;
36551;SDS011;22559;54.176;12.102;2023-09-12T04:37:44;69.40;;;44.15;;
36551;SDS011;22559;54.176;12.102;2023-09-12T04:40:10;81.72;;;47.03;;
36551;SDS011;22559;54.176;12.102;2023-09-12T04:42:36;76.68;;;44.67;;
36551;SDS011;22559;54.176;12.102;2023-09-12T04:45:02;83.60;;;45.42;;
36551;SDS011;22559;54.176;12.102;2023-09-12T04:47:27;71.88;;;42.20;;
36551;SDS011;22559;54.176;12.102;2023-09-12T04:49:53;80.82;;;43.92;;
36551;SDS011;22559;54.176;12.102;2023-09-12T04:52:19;85.35;;;44.28;;
36551;SDS011;22559;54.176;12.102;2023-09-12T04:54:44;84.78;;;44.88;;
36551;SDS011;22559;54.176;12.102;2023-09-12T04:57:10;89.63;;;45.33;;
36551;SDS011;22559;54.176;12.102;2023-09-12T04:59:35;84.95;;;44.15;;
36551;SDS011;22559;54.176;12.102;2023-09-12T05:02:01;85.63;;;42.55;;
36551;SDS011;22559;54.176;12.102;2023-09-12T05:04:27;77.63;;;41.83;;
36551;SDS011;22559;54.176;12.102;2023-09-12T05:06:53;79.78;;;41.63;;
36551;SDS011;22559;54.176;12.102;2023-09-12T05:09:19;80.20;;;42.20;;
36551;SDS011;22559;54.176;12.102;2023-09-12T05:11:44;80.13;;;40.45;;
36551;SDS011;22559;54.176;12.102;2023-09-12T05:14:10;78.70;;;42.08;;
36551;SDS011;22559;54.176;12.102;2023-09-12T05:16:36;76.00;;;41.10;;
36551;SDS011;22559;54.176;12.102;2023-09-12T05:19:02;79.00;;;40.65;;
36551;SDS011;22559;54.176;12.102;2023-09-12T05:21:28;70.47;;;40.97;;
36551;SDS011;22559;54.176;12.102;2023-09-12T05:23:54;74.95;;;40.95;;
36551;SDS011;22559;54.176;12.102;2023-09-12T05:26:19;75.95;;;40.53;;
36551;SDS011;22559;54.176;12.102;2023-09-12T05:28:45;70.53;;;39.88;;
36551;SDS011;22559;54.176;12.102;2023-09-12T05:31:11;68.10;;;40.67;;
36551;SDS011;22559;54.176;12.102;2023-09-12T05:33:36;74.38;;;39.88;;
36551;SDS011;22559;54.176;12.102;2023-09-12T05:36:02;74.05;;;40.58;;
36551;SDS011;22559;54.176;12.102;2023-09-12T05:38:28;74.82;;;40.20;;
36551;SDS011;22559;54.176;12.102;2023-09-12T05:40:53;69.82;;;38.03;;
36551;SDS011;22559;54.176;12.102;2023-09-12T05:43:19;70.50;;;38.72;;
36551;SDS011;22559;54.176;12.102;2023-09-12T05:45:45;67.90;;;37.70;;
36551;SDS011;22559;54.176;12.102;2023-09-12T05:48:10;64.70;;;36.15;;
36551;SDS011;22559;54.176;12.102;2023-09-12T05:50:36;65.43;;;38.42;;
36551;SDS011;22559;54.176;12.102;2023-09-12T05:53:02;65.25;;;37.15;;
36551;SDS011;22559;54.176;12.102;2023-09-12T05:55:28;67.65;;;39.80;;
36551;SDS011;22559;54.176;12.102;2023-09-12T05:57:53;65.75;;;37.97;;
36551;SDS011;22559;54.176;12.102;2023-09-12T06:00:19;66.32;;;35.83;;
36551;SDS011;22559;54.176;12.102;2023-09-12T06:02:46;57.90;;;35.05;;
36551;SDS011;22559;54.176;12.102;2023-09-12T06:05:12;65.18;;;38.35;;
36551;SDS011;22559;54.176;12.102;2023-09-12T06:07:39;58.63;;;35.50;;
36551;SDS011;22559;54.176;12.102;2023-09-12T06:10:05;63.92;;;36.17;;
36551;SDS011;22559;54.176;12.102;2023-09-12T06:12:32;59.25;;;36.03;;
36551;SDS011;22559;54.176;12.102;2023-09-12T06:14:58;60.88;;;35.67;;
36551;SDS011;22559;54.176;12.102;2023-09-12T06:17:24;66.65;;;36.55;;
36551;SDS011;22559;54.176;12.102;2023-09-12T06:19:50;61.13;;;34.42;;
36551;SDS011;22559;54.176;12.102;2023-09-12T06:22:16;59.25;;;34.00;;
36551;SDS011;22559;54.176;12.102;2023-09-12T06:24:42;57.90;;;34.67;;
36551;SDS011;22559;54.176;12.102;2023-09-12T06:27:08;56.75;;;33.53;;
36551;SDS011;22559;54.176;12.102;2023-09-12T06:29:34;52.42;;;32.42;;
36551;SDS011;22559;54.176;12.102;2023-09-12T06:32:00;47.00;;;29.67;;
36551;SDS011;22559;54.176;12.102;2023-09-12T06:34:27;48.53;;;29.35;;
36551;SDS011;22559;54.176;12.102;2023-09-12T06:36:52;47.30;;;29.67;;
36551;SDS011;22559;54.176;12.102;2023-09-12T06:39:18;44.17;;;28.55;;
36551;SDS011;22559;54.176;12.102;2023-09-12T06:41:44;43.95;;;27.35;;
36551;SDS011;22559;54.176;12.102;2023-09-12T06:44:10;38.30;;;25.70;;
36551;SDS011;22559;54.176;12.102;2023-09-12T06:46:35;42.65;;;27.60;;
36551;SDS011;22559;54.176;12.102;2023-09-12T06:49:02;42.08;;;26.60;;
36551;SDS011;22559;54.176;12.102;2023-09-12T06:51:28;39.90;;;26.17;;
36551;SDS011;22559;54.176;12.102;2023-09-12T06:53:54;43.80;;;25.65;;
36551;SDS011;22559;54.176;12.102;2023-09-12T06:56:20;35.50;;;24.98;;
36551;SDS011;22559;54.176;12.102;2023-09-12T06:58:46;39.78;;;26.13;;
36551;SDS011;22559;54.176;12.102;2023-09-12T07:01:12;44.03;;;26.45;;
36551;SDS011;22559;54.176;12.102;2023-09-12T07:03:38;36.33;;;24.25;;
36551;SDS011;22559;54.176;12.102;2023-09-12T07:06:04;38.20;;;24.40;;
36551;SDS011;22559;54.176;12.102;2023-09-12T07:08:30;39.58;;;24.42;;
36551;SDS011;22559;54.176;12.102;2023-09-12T07:10:57;38.00;;;24.48;;
36551;SDS011;22559;54.176;12.102;2023-09-12T07:13:30;35.85;;;23.73;;
36551;SDS011;22559;54.176;12.102;2023-09-12T07:15:56;36.67;;;23.92;;
36551;SDS011;22559;54.176;12.102;2023-09-12T07:18:22;36.17;;;23.40;;
36551;SDS011;22559;54.176;12.102;2023-09-12T07:20:56;40.35;;;25.52;;
36551;SDS011;22559;54.176;12.102;2023-09-12T07:23:25;40.72;;;25.08;;
36551;SDS011;22559;54.176;12.102;2023-09-12T07:25:51;36.45;;;24.25;;
36551;SDS011;22559;54.176;12.102;2023-09-12T07:28:17;37.20;;;22.02;;
36551;SDS011;22559;54.176;12.102;2023-09-12T07:30:45;38.08;;;25.33;;
36551;SDS011;22559;54.176;12.102;2023-09-12T07:33:11;43.28;;;27.83;;
36551;SDS011;22559;54.176;12.102;2023-09-12T07:35:37;45.03;;;28.35;;
36551;SDS011;22559;54.176;12.102;2023-09-12T07:38:03;39.88;;;27.25;;
36551;SDS011;22559;54.176;12.102;2023-09-12T07:40:29;41.78;;;27.00;;
36551;SDS011;22559;54.176;12.102;2023-09-12T07:42:55;35.50;;;23.98;;
36551;SDS011;22559;54.176;12.102;2023-09-12T07:45:20;33.08;;;23.45;;
36551;SDS011;22559;54.176;12.102;2023-09-12T07:47:46;34.65;;;24.27;;
36551;SDS011;22559;54.176;12.102;2023-09-12T07:50:12;35.28;;;22.92;;
36551;SDS011;22559;54.176;12.102;2023-09-12T07:52:37;29.98;;;20.98;;
36551;SDS011;22559;54.176;12.102;2023-09-12T07:55:03;29.67;;;20.25;;
36551;SDS011;22559;54.176;12.102;2023-09-12T07:57:29;29.23;;;21.60;;
36551;SDS011;22559;54.176;12.102;2023-09-12T07:59:55;36.03;;;24.35;;
36551;SDS011;22559;54.176;12.102;2023-09-12T08:02:21;34.25;;;23.52;;
36551;SDS011;22559;54.176;12.102;2023-09-12T08:04:48;35.90;;;24.73;;
36551;SDS011;22559;54.176;12.102;2023-09-12T08:07:16;31.35;;;23.60;;
36551;SDS011;22559;54.176;12.102;2023-09-12T08:09:52;39.28;;;25.45;;
36551;SDS011;22559;54.176;12.102;2023-09-12T08:12:20;37.72;;;25.33;;
36551;SDS011;22559;54.176;12.102;2023-09-12T08:14:47;38.63;;;24.90;;
36551;SDS011;22559;54.176;12.102;2023-09-12T08:17:13;35.72;;;24.40;;
36551;SDS011;22559;54.176;12.102;2023-09-12T08:19:39;36.55;;;24.98;;
36551;SDS011;22559;54.176;12.102;2023-09-12T08:22:06;36.40;;;25.98;;
36551;SDS011;22559;54.176;12.102;2023-09-12T08:24:33;36.33;;;25.23;;
36551;SDS011;22559;54.176;12.102;2023-09-12T08:26:59;41.83;;;27.50;;
36551;SDS011;22559;54.176;12.102;2023-09-12T08:29:25;39.05;;;25.92;;
36551;SDS011;22559;54.176;12.102;2023-09-12T08:31:52;37.25;;;25.58;;
36551;SDS011;22559;54.176;12.102;2023-09-12T08:34:18;40.22;;;26.55;;
36551;SDS011;22559;54.176;12.102;2023-09-12T08:36:45;35.83;;;25.77;;
36551;SDS011;22559;54.176;12.102;2023-09-12T08:39:13;36.70;;;25.92;;
36551;SDS011;22559;54.176;12.102;2023-09-12T08:41:41;39.72;;;26.52;;
36551;SDS011;22559;54.176;12.102;2023-09-12T08:44:07;45.50;;;27.92;;
36551;SDS011;22559;54.176;12.102;2023-09-12T08:46:33;40.55;;;27.15;;
36551;SDS011;22559;54.176;12.102;2023-09-12T08:48:59;40.33;;;25.65;;
36551;SDS011;22559;54.176;12.102;2023-09-12T08:51:25;36.80;;;24.77;;
36551;SDS011;22559;54.176;12.102;2023-09-12T08:53:50;35.42;;;25.38;;
36551;SDS011;22559;54.176;12.102;2023-09-12T08:56:17;37.30;;;24.02;;
36551;SDS011;22559;54.176;12.102;2023-09-12T08:58:44;34.53;;;25.08;;
36551;SDS011;22559;54.176;12.102;2023-09-12T09:01:13;34.38;;;23.75;;
36551;SDS011;22559;54.176;12.102;2023-09-12T09:03:41;32.88;;;23.45;;
36551;SDS011;22559;54.176;12.102;2023-09-12T09:06:10;36.22;;;23.70;;
36551;SDS011;22559;54.176;12.102;2023-09-12T09:08:38;31.10;;;22.67;;
36551;SDS011;22559;54.176;12.102;2023-09-12T09:11:05;32.45;;;21.52;;
36551;SDS011;22559;54.176;12.102;2023-09-12T09:13:32;29.58;;;20.73;;
36551;SDS011;22559;54.176;12.102;2023-09-12T09:16:13;28.73;;;20.33;;
36551;SDS011;22559;54.176;12.102;2023-09-12T09:21:27;22.83;;;16.48;;
36551;SDS011;22559;54.176;12.102;2023-09-12T09:23:55;24.00;;;16.58;;
36551;SDS011;22559;54.176;12.102;2023-09-12T09:26:22;25.80;;;17.80;;
36551;SDS011;22559;54.176;12.102;2023-09-12T09:31:31;17.15;;;14.00;;
36551;SDS011;22559;54.176;12.102;2023-09-12T09:33:58;18.60;;;13.98;;
36551;SDS011;22559;54.176;12.102;2023-09-12T09:36:24;18.15;;;14.43;;
36551;SDS011;22559;54.176;12.102;2023-09-12T09:38:50;15.77;;;12.52;;
36551;SDS011;22559;54.176;12.102;2023-09-12T09:41:19;14.13;;;11.50;;
36551;SDS011;22559;54.176;12.102;2023-09-12T09:43:48;18.90;;;11.43;;
36551;SDS011;22559;54.176;12.102;2023-09-12T09:46:16;15.60;;;11.35;;
36551;SDS011;22559;54.176;12.102;2023-09-12T09:48:48;15.27;;;11.00;;
36551;SDS011;22559;54.176;12.102;2023-09-12T09:51:15;17.60;;;12.32;;
36551;SDS011;22559;54.176;12.102;2023-09-12T09:53:41;13.93;;;11.20;;
36551;SDS011;22559;54.176;12.102;2023-09-12T09:56:12;16.67;;;13.10;;
36551;SDS011;22559;54.176;12.102;2023-09-12T09:58:46;16.70;;;12.68;;
36551;SDS011;22559;54.176;12.102;2023-09-12T10:01:13;18.00;;;13.45;;
36551;SDS011;22559;54.176;12.102;2023-09-12T10:03:43;17.33;;;12.90;;
36551;SDS011;22559;54.176;12.102;2023-09-12T10:06:10;15.27;;;11.85;;
36551;SDS011;22559;54.176;12.102;2023-09-12T10:08:37;13.40;;;11.20;;
36551;SDS011;22559;54.176;12.102;2023-09-12T10:11:05;14.77;;;11.18;;
36551;SDS011;22559;54.176;12.102;2023-09-12T10:13:32;13.70;;;10.60;;
36551;SDS011;22559;54.176;12.102;2023-09-12T10:16:00;13.23;;;9.77;;
36551;SDS011;22559;54.176;12.102;2023-09-12T10:18:29;10.23;;;8.98;;
36551;SDS011;22559;54.176;12.102;2023-09-12T10:21:07;14.30;;;9.75;;
36551;SDS011;22559;54.176;12.102;2023-09-12T10:23:38;12.43;;;9.20;;
36551;SDS011;22559;54.176;12.102;2023-09-12T10:26:16;12.30;;;10.35;;
36551;SDS011;22559;54.176;12.102;2023-09-12T10:28:42;13.50;;;10.13;;
36551;SDS011;22559;54.176;12.102;2023-09-12T10:31:09;14.25;;;10.30;;
36551;SDS011;22559;54.176;12.102;2023-09-12T10:33:37;14.48;;;9.98;;
36551;SDS011;22559;54.176;12.102;2023-09-12T10:36:04;14.70;;;11.10;;
36551;SDS011;22559;54.176;12.102;2023-09-12T10:38:32;13.55;;;10.30;;
36551;SDS011;22559;54.176;12.102;2023-09-12T10:41:00;14.32;;;10.98;;
36551;SDS011;22559;54.176;12.102;2023-09-12T10:43:28;12.50;;;10.02;;
36551;SDS011;22559;54.176;12.102;2023-09-12T10:45:54;11.65;;;10.20;;
36551;SDS011;22559;54.176;12.102;2023-09-12T10:48:24;15.82;;;9.90;;
36551;SDS011;22559;54.176;12.102;2023-09-12T10:50:50;13.07;;;10.20;;
36551;SDS011;22559;54.176;12.102;2023-09-12T10:53:16;14.27;;;10.55;;
36551;SDS011;22559;54.176;12.102;2023-09-12T10:55:42;14.45;;;10.90;;
36551;SDS011;22559;54.176;12.102;2023-09-12T10:58:24;13.73;;;10.30;;
36551;SDS011;22559;54.176;12.102;2023-09-12T11:03:50;16.25;;;11.85;;
36551;SDS011;22559;54.176;12.102;2023-09-12T11:06:19;13.20;;;11.15;;
36551;SDS011;22559;54.176;12.102;2023-09-12T11:11:43;24.27;;;16.48;;
36551;SDS011;22559;54.176;12.102;2023-09-12T11:14:11;24.30;;;17.02;;
36551;SDS011;22559;54.176;12.102;2023-09-12T11:16:37;27.90;;;17.23;;
36551;SDS011;22559;54.176;12.102;2023-09-12T11:19:13;27.73;;;18.20;;
36551;SDS011;22559;54.176;12.102;2023-09-12T11:21:44;24.92;;;18.02;;
36551;SDS011;22559;54.176;12.102;2023-09-12T11:24:14;29.40;;;18.30;;
36551;SDS011;22559;54.176;12.102;2023-09-12T11:27:00;27.70;;;18.20;;
36551;SDS011;22559;54.176;12.102;2023-09-12T11:29:34;24.45;;;17.13;;
36551;SDS011;22559;54.176;12.102;2023-09-12T11:32:02;26.85;;;18.17;;
36551;SDS011;22559;54.176;12.102;2023-09-12T11:34:29;26.88;;;18.58;;
36551;SDS011;22559;54.176;12.102;2023-09-12T11:37:00;30.05;;;19.50;;
36551;SDS011;22559;54.176;12.102;2023-09-12T11:39:32;26.05;;;17.45;;
36551;SDS011;22559;54.176;12.102;2023-09-12T11:41:59;26.50;;;17.05;;
36551;SDS011;22559;54.176;12.102;2023-09-12T11:44:27;22.02;;;15.10;;
36551;SDS011;22559;54.176;12.102;2023-09-12T11:46:53;22.42;;;14.02;;
36551;SDS011;22559;54.176;12.102;2023-09-12T11:49:20;17.60;;;12.60;;
36551;SDS011;22559;54.176;12.102;2023-09-12T11:51:52;18.95;;;13.20;;
36551;SDS011;22559;54.176;12.102;2023-09-12T11:54:24;16.60;;;12.02;;
36551;SDS011;22559;54.176;12.102;2023-09-12T11:56:51;17.23;;;11.85;;
36551;SDS011;22559;54.176;12.102;2023-09-12T11:59:24;15.23;;;11.13;;
36551;SDS011;22559;54.176;12.102;2023-09-12T12:01:54;13.93;;;10.75;;
36551;SDS011;22559;54.176;12.102;2023-09-12T12:04:21;12.63;;;10.30;;
36551;SDS011;22559;54.176;12.102;2023-09-12T12:06:47;16.20;;;11.05;;
36551;SDS011;22559;54.176;12.102;2023-09-12T12:09:14;15.20;;;11.40;;
36551;SDS011;22559;54.176;12.102;2023-09-12T12:11:43;14.18;;;10.30;;
36551;SDS011;22559;54.176;12.102;2023-09-12T12:14:10;15.32;;;11.23;;
36551;SDS011;22559;54.176;12.102;2023-09-12T12:16:40;13.20;;;10.52;;
36551;SDS011;22559;54.176;12.102;2023-09-12T12:19:07;19.45;;;12.27;;
36551;SDS011;22559;54.176;12.102;2023-09-12T12:21:32;13.93;;;11.85;;
36551;SDS011;22559;54.176;12.102;2023-09-12T12:23:59;18.10;;;12.48;;
36551;SDS011;22559;54.176;12.102;2023-09-12T12:26:31;16.60;;;12.20;;
36551;SDS011;22559;54.176;12.102;2023-09-12T12:28:58;17.75;;;14.18;;
36551;SDS011;22559;54.176;12.102;2023-09-12T12:31:25;19.67;;;13.95;;
36551;SDS011;22559;54.176;12.102;2023-09-12T12:33:54;20.70;;;15.07;;
36551;SDS011;22559;54.176;12.102;2023-09-12T12:36:21;19.25;;;13.60;;
36551;SDS011;22559;54.176;12.102;2023-09-12T12:38:48;20.08;;;14.38;;
36551;SDS011;22559;54.176;12.102;2023-09-12T12:41:15;20.40;;;13.45;;
36551;SDS011;22559;54.176;12.102;2023-09-12T12:43:46;18.83;;;13.88;;
36551;SDS011;22559;54.176;12.102;2023-09-12T12:46:16;17.67;;;13.52;;
36551;SDS011;22559;54.176;12.102;2023-09-12T12:48:44;18.63;;;13.48;;
36551;SDS011;22559;54.176;12.102;2023-09-12T12:51:20;18.13;;;12.75;;
36551;SDS011;22559;54.176;12.102;2023-09-12T12:53:49;15.68;;;12.70;;
36551;SDS011;22559;54.176;12.102;2023-09-12T12:56:17;14.55;;;11.70;;
36551;SDS011;22559;54.176;12.102;2023-09-12T12:58:48;15.80;;;11.65;;
36551;SDS011;22559;54.176;12.102;2023-09-12T13:01:18;14.27;;;10.20;;
36551;SDS011;22559;54.176;12.102;2023-09-12T13:03:44;16.20;;;11.18;;
36551;SDS011;22559;54.176;12.102;2023-09-12T13:06:10;16.15;;;10.90;;
36551;SDS011;22559;54.176;12.102;2023-09-12T13:08:40;14.15;;;10.70;;
36551;SDS011;22559;54.176;12.102;2023-09-12T13:11:07;13.75;;;10.30;;
36551;SDS011;22559;54.176;12.102;2023-09-12T13:13:33;13.48;;;10.45;;
36551;SDS011;22559;54.176;12.102;2023-09-12T13:15:59;12.73;;;10.35;;
36551;SDS011;22559;54.176;12.102;2023-09-12T13:18:25;14.73;;;11.35;;
36551;SDS011;22559;54.176;12.102;2023-09-12T13:20:51;17.20;;;10.77;;
36551;SDS011;22559;54.176;12.102;2023-09-12T13:23:17;14.60;;;11.15;;
36551;SDS011;22559;54.176;12.102;2023-09-12T13:25:42;12.52;;;10.52;;
36551;SDS011;22559;54.176;12.102;2023-09-12T13:28:08;15.30;;;11.55;;
36551;SDS011;22559;54.176;12.102;2023-09-12T13:30:34;15.05;;;10.80;;
36551;SDS011;22559;54.176;12.102;2023-09-12T13:32:59;12.95;;;10.77;;
36551;SDS011;22559;54.176;12.102;2023-09-12T13:35:25;14.73;;;9.93;;
36551;SDS011;22559;54.176;12.102;2023-09-12T13:37:51;13.75;;;11.65;;
36551;SDS011;22559;54.176;12.102;2023-09-12T13:40:16;15.18;;;11.35;;
36551;SDS011;22559;54.176;12.102;2023-09-12T13:42:42;15.05;;;9.43;;
36551;SDS011;22559;54.176;12.102;2023-09-12T13:45:08;11.05;;;9.25;;
36551;SDS011;22559;54.176;12.102;2023-09-12T13:47:34;14.00;;;10.10;;
36551;SDS011;22559;54.176;12.102;2023-09-12T13:49:59;10.98;;;8.27;;
36551;SDS011;22559;54.176;12.102;2023-09-12T13:52:26;13.05;;;9.10;;
36551;SDS011;22559;54.176;12.102;2023-09-12T13:54:52;12.40;;;8.05;;
36551;SDS011;22559;54.176;12.102;2023-09-12T13:57:18;11.85;;;7.82;;
36551;SDS011;22559;54.176;12.102;2023-09-12T13:59:44;11.70;;;8.45;;
36551;SDS011;22559;54.176;12.102;2023-09-12T14:02:09;8.90;;;7.38;;
36551;SDS011;22559;54.176;12.102;2023-09-12T14:04:35;8.65;;;6.93;;
36551;SDS011;22559;54.176;12.102;2023-09-12T14:07:01;8.43;;;7.35;;
36551;SDS011;22559;54.176;12.102;2023-09-12T14:09:27;7.65;;;6.90;;
36551;SDS011;22559;54.176;12.102;2023-09-12T14:11:53;10.30;;;7.38;;
36551;SDS011;22559;54.176;12.102;2023-09-12T14:14:19;9.80;;;7.38;;
36551;SDS011;22559;54.176;12.102;2023-09-12T14:16:44;7.45;;;6.53;;
36551;SDS011;22559;54.176;12.102;2023-09-12T14:19:10;10.27;;;8.20;;
36551;SDS011;22559;54.176;12.102;2023-09-12T14:21:36;11.65;;;7.90;;
36551;SDS011;22559;54.176;12.102;2023-09-12T14:24:02;8.02;;;7.03;;
36551;SDS011;22559;54.176;12.102;2023-09-12T14:26:28;12.65;;;7.45;;